sensor_id;sensor_type;location;lat;lon;timestamp;P1;durP1;ratioP1;P2;durP2;ratioP2
7527;SDS011;3805;49.006;8.514;2023-02-28T00:02:02;7.97;;;7.33;;
7527;SDS011;3805;49.006;8.514;2023-02-28T00:04:51;6.90;;;6.30;;
7527;SDS011;3805;49.006;8.514;2023-02-28T00:07:48;5.87;;;5.47;;
7527;SDS011;3805;49.006;8.514;2023-02-28T00:10:38;6.60;;;6.00;;
7527;SDS011;3805;49.006;8.514;2023-02-28T00:13:28;6.20;;;5.70;;
7527;SDS011;3805;49.006;8.514;2023-02-28T00:16:17;7.23;;;6.40;;
7527;SDS011;3805;49.006;8.514;2023-02-28T00:19:07;5.83;;;5.40;;
7527;SDS011;3805;49.006;8.514;2023-02-28T00:21:56;6.80;;;6.30;;
7527;SDS011;3805;49.006;8.514;2023-02-28T00:24:44;6.37;;;5.87;;
7527;SDS011;3805;49.006;8.514;2023-02-28T00:27:34;6.33;;;5.77;;
7527;SDS011;3805;49.006;8.514;2023-02-28T00:30:24;6.00;;;5.60;;
7527;SDS011;3805;49.006;8.514;2023-02-28T00:33:13;7.00;;;6.50;;
7527;SDS011;3805;49.006;8.514;2023-02-28T00:36:05;6.73;;;6.23;;
7527;SDS011;3805;49.006;8.514;2023-02-28T00:38:55;6.73;;;6.20;;
7527;SDS011;3805;49.006;8.514;2023-02-28T00:41:43;6.03;;;5.50;;
7527;SDS011;3805;49.006;8.514;2023-02-28T00:44:32;6.90;;;6.30;;
7527;SDS011;3805;49.006;8.514;2023-02-28T00:47:22;6.40;;;5.90;;
7527;SDS011;3805;49.006;8.514;2023-02-28T00:50:11;6.50;;;5.90;;
7527;SDS011;3805;49.006;8.514;2023-02-28T00:52:59;7.10;;;6.60;;
7527;SDS011;3805;49.006;8.514;2023-02-28T00:55:48;6.80;;;6.10;;
7527;SDS011;3805;49.006;8.514;2023-02-28T00:58:37;7.70;;;6.10;;
7527;SDS011;3805;49.006;8.514;2023-02-28T01:01:25;7.90;;;7.13;;
7527;SDS011;3805;49.006;8.514;2023-02-28T01:04:16;8.17;;;7.47;;
7527;SDS011;3805;49.006;8.514;2023-02-28T01:07:05;6.33;;;5.83;;
7527;SDS011;3805;49.006;8.514;2023-02-28T01:09:53;7.30;;;6.63;;
7527;SDS011;3805;49.006;8.514;2023-02-28T01:12:42;6.13;;;5.53;;
7527;SDS011;3805;49.006;8.514;2023-02-28T01:15:30;6.27;;;5.67;;
7527;SDS011;3805;49.006;8.514;2023-02-28T01:18:20;6.47;;;5.87;;
7527;SDS011;3805;49.006;8.514;2023-02-28T01:21:11;6.70;;;6.20;;
7527;SDS011;3805;49.006;8.514;2023-02-28T01:24:01;7.23;;;6.53;;
7527;SDS011;3805;49.006;8.514;2023-02-28T01:26:50;6.97;;;6.37;;
7527;SDS011;3805;49.006;8.514;2023-02-28T01:29:38;6.13;;;5.67;;
7527;SDS011;3805;49.006;8.514;2023-02-28T01:32:27;7.63;;;6.80;;
7527;SDS011;3805;49.006;8.514;2023-02-28T01:35:15;7.00;;;6.40;;
7527;SDS011;3805;49.006;8.514;2023-02-28T01:38:05;7.00;;;6.50;;
7527;SDS011;3805;49.006;8.514;2023-02-28T01:41:08;8.53;;;6.40;;
7527;SDS011;3805;49.006;8.514;2023-02-28T01:44:03;8.30;;;6.87;;
7527;SDS011;3805;49.006;8.514;2023-02-28T01:46:52;7.20;;;6.60;;
7527;SDS011;3805;49.006;8.514;2023-02-28T01:49:41;5.90;;;5.50;;
7527;SDS011;3805;49.006;8.514;2023-02-28T01:52:30;6.70;;;6.20;;
7527;SDS011;3805;49.006;8.514;2023-02-28T01:55:20;6.73;;;6.23;;
7527;SDS011;3805;49.006;8.514;2023-02-28T01:58:10;7.57;;;6.73;;
7527;SDS011;3805;49.006;8.514;2023-02-28T02:00:58;6.97;;;6.47;;
7527;SDS011;3805;49.006;8.514;2023-02-28T02:03:50;5.90;;;5.50;;
7527;SDS011;3805;49.006;8.514;2023-02-28T02:06:43;6.73;;;6.20;;
7527;SDS011;3805;49.006;8.514;2023-02-28T02:09:32;5.97;;;5.50;;
7527;SDS011;3805;49.006;8.514;2023-02-28T02:12:24;6.37;;;5.77;;
7527;SDS011;3805;49.006;8.514;2023-02-28T02:15:16;7.30;;;6.57;;
7527;SDS011;3805;49.006;8.514;2023-02-28T02:18:11;6.80;;;6.20;;
7527;SDS011;3805;49.006;8.514;2023-02-28T02:21:11;8.13;;;7.43;;
7527;SDS011;3805;49.006;8.514;2023-02-28T02:24:30;6.40;;;5.90;;
7527;SDS011;3805;49.006;8.514;2023-02-28T02:27:42;7.57;;;6.30;;
7527;SDS011;3805;49.006;8.514;2023-02-28T02:30:44;8.43;;;6.60;;
7527;SDS011;3805;49.006;8.514;2023-02-28T02:34:06;6.40;;;5.90;;
7527;SDS011;3805;49.006;8.514;2023-02-28T02:37:21;6.57;;;5.97;;
7527;SDS011;3805;49.006;8.514;2023-02-28T02:40:16;7.83;;;7.10;;
7527;SDS011;3805;49.006;8.514;2023-02-28T02:43:07;6.97;;;6.43;;
7527;SDS011;3805;49.006;8.514;2023-02-28T02:46:01;7.60;;;6.80;;
7527;SDS011;3805;49.006;8.514;2023-02-28T02:48:52;8.50;;;6.60;;
7527;SDS011;3805;49.006;8.514;2023-02-28T02:51:44;8.00;;;7.23;;
7527;SDS011;3805;49.006;8.514;2023-02-28T02:54:35;7.60;;;7.00;;
7527;SDS011;3805;49.006;8.514;2023-02-28T02:57:26;6.50;;;6.00;;
7527;SDS011;3805;49.006;8.514;2023-02-28T03:00:18;8.43;;;7.63;;
7527;SDS011;3805;49.006;8.514;2023-02-28T03:03:10;7.83;;;7.00;;
7527;SDS011;3805;49.006;8.514;2023-02-28T03:06:00;8.40;;;7.67;;
7527;SDS011;3805;49.006;8.514;2023-02-28T03:08:51;7.70;;;7.00;;
7527;SDS011;3805;49.006;8.514;2023-02-28T03:11:39;9.47;;;7.70;;
7527;SDS011;3805;49.006;8.514;2023-02-28T03:14:32;7.90;;;7.20;;
7527;SDS011;3805;49.006;8.514;2023-02-28T03:17:31;8.30;;;7.50;;
7527;SDS011;3805;49.006;8.514;2023-02-28T03:20:33;8.73;;;7.93;;
7527;SDS011;3805;49.006;8.514;2023-02-28T03:23:26;9.70;;;7.20;;
7527;SDS011;3805;49.006;8.514;2023-02-28T03:26:22;7.80;;;7.10;;
7527;SDS011;3805;49.006;8.514;2023-02-28T03:29:13;7.53;;;6.93;;
7527;SDS011;3805;49.006;8.514;2023-02-28T03:32:05;8.20;;;7.40;;
7527;SDS011;3805;49.006;8.514;2023-02-28T03:35:02;8.63;;;7.93;;
7527;SDS011;3805;49.006;8.514;2023-02-28T03:37:56;8.57;;;7.53;;
7527;SDS011;3805;49.006;8.514;2023-02-28T03:40:50;10.40;;;8.10;;
7527;SDS011;3805;49.006;8.514;2023-02-28T03:43:44;8.03;;;7.40;;
7527;SDS011;3805;49.006;8.514;2023-02-28T03:46:37;8.13;;;7.30;;
7527;SDS011;3805;49.006;8.514;2023-02-28T03:49:28;8.70;;;8.00;;
7527;SDS011;3805;49.006;8.514;2023-02-28T03:52:19;8.93;;;8.13;;
7527;SDS011;3805;49.006;8.514;2023-02-28T03:55:11;8.50;;;7.13;;
7527;SDS011;3805;49.006;8.514;2023-02-28T03:58:01;8.50;;;7.80;;
7527;SDS011;3805;49.006;8.514;2023-02-28T04:00:56;8.70;;;7.90;;
7527;SDS011;3805;49.006;8.514;2023-02-28T04:03:53;9.03;;;8.27;;
7527;SDS011;3805;49.006;8.514;2023-02-28T04:06:42;9.57;;;8.20;;
7527;SDS011;3805;49.006;8.514;2023-02-28T04:09:31;8.80;;;8.00;;
7527;SDS011;3805;49.006;8.514;2023-02-28T04:12:19;8.87;;;8.07;;
7527;SDS011;3805;49.006;8.514;2023-02-28T04:15:10;8.80;;;7.90;;
7527;SDS011;3805;49.006;8.514;2023-02-28T04:18:00;9.50;;;8.30;;
7527;SDS011;3805;49.006;8.514;2023-02-28T04:20:48;9.20;;;8.30;;
7527;SDS011;3805;49.006;8.514;2023-02-28T04:23:37;8.30;;;7.67;;
7527;SDS011;3805;49.006;8.514;2023-02-28T04:26:27;9.30;;;8.40;;
7527;SDS011;3805;49.006;8.514;2023-02-28T04:29:18;8.90;;;8.00;;
7527;SDS011;3805;49.006;8.514;2023-02-28T04:32:08;9.40;;;8.50;;
7527;SDS011;3805;49.006;8.514;2023-02-28T04:34:58;8.60;;;8.00;;
7527;SDS011;3805;49.006;8.514;2023-02-28T04:37:46;10.27;;;8.70;;
7527;SDS011;3805;49.006;8.514;2023-02-28T04:40:35;9.23;;;8.00;;
7527;SDS011;3805;49.006;8.514;2023-02-28T04:43:23;7.80;;;6.83;;
7527;SDS011;3805;49.006;8.514;2023-02-28T04:46:12;9.57;;;7.80;;
7527;SDS011;3805;49.006;8.514;2023-02-28T04:49:00;8.63;;;7.60;;
7527;SDS011;3805;49.006;8.514;2023-02-28T04:51:51;9.00;;;7.60;;
7527;SDS011;3805;49.006;8.514;2023-02-28T04:54:39;11.60;;;9.17;;
7527;SDS011;3805;49.006;8.514;2023-02-28T04:57:28;9.80;;;8.80;;
7527;SDS011;3805;49.006;8.514;2023-02-28T05:00:17;8.70;;;7.90;;
7527;SDS011;3805;49.006;8.514;2023-02-28T05:03:06;10.50;;;9.23;;
7527;SDS011;3805;49.006;8.514;2023-02-28T05:05:54;8.80;;;7.97;;
7527;SDS011;3805;49.006;8.514;2023-02-28T05:08:44;9.23;;;8.33;;
7527;SDS011;3805;49.006;8.514;2023-02-28T05:11:33;9.37;;;7.73;;
7527;SDS011;3805;49.006;8.514;2023-02-28T05:14:22;9.90;;;7.70;;
7527;SDS011;3805;49.006;8.514;2023-02-28T05:17:11;8.57;;;7.67;;
7527;SDS011;3805;49.006;8.514;2023-02-28T05:20:00;8.93;;;8.13;;
7527;SDS011;3805;49.006;8.514;2023-02-28T05:23:01;8.50;;;7.67;;
7527;SDS011;3805;49.006;8.514;2023-02-28T05:25:51;9.20;;;8.30;;
7527;SDS011;3805;49.006;8.514;2023-02-28T05:28:41;8.93;;;8.03;;
7527;SDS011;3805;49.006;8.514;2023-02-28T05:31:29;9.90;;;8.90;;
7527;SDS011;3805;49.006;8.514;2023-02-28T05:34:18;9.00;;;8.13;;
7527;SDS011;3805;49.006;8.514;2023-02-28T05:37:08;9.90;;;8.90;;
7527;SDS011;3805;49.006;8.514;2023-02-28T05:39:59;10.30;;;9.30;;
7527;SDS011;3805;49.006;8.514;2023-02-28T05:42:50;9.60;;;8.70;;
7527;SDS011;3805;49.006;8.514;2023-02-28T05:45:39;9.90;;;8.93;;
7527;SDS011;3805;49.006;8.514;2023-02-28T05:48:28;9.37;;;7.80;;
7527;SDS011;3805;49.006;8.514;2023-02-28T05:51:16;11.07;;;9.20;;
7527;SDS011;3805;49.006;8.514;2023-02-28T05:54:05;9.00;;;8.10;;
7527;SDS011;3805;49.006;8.514;2023-02-28T05:56:54;9.83;;;8.83;;
7527;SDS011;3805;49.006;8.514;2023-02-28T05:59:44;10.70;;;8.10;;
7527;SDS011;3805;49.006;8.514;2023-02-28T06:02:32;8.93;;;8.07;;
7527;SDS011;3805;49.006;8.514;2023-02-28T06:05:21;11.10;;;9.23;;
7527;SDS011;3805;49.006;8.514;2023-02-28T06:08:10;8.40;;;7.63;;
7527;SDS011;3805;49.006;8.514;2023-02-28T06:11:02;9.30;;;8.17;;
7527;SDS011;3805;49.006;8.514;2023-02-28T06:13:52;9.57;;;8.67;;
7527;SDS011;3805;49.006;8.514;2023-02-28T06:16:43;10.30;;;8.83;;
7527;SDS011;3805;49.006;8.514;2023-02-28T06:19:31;10.03;;;8.43;;
7527;SDS011;3805;49.006;8.514;2023-02-28T06:22:20;9.77;;;8.73;;
7527;SDS011;3805;49.006;8.514;2023-02-28T06:25:09;10.23;;;9.10;;
7527;SDS011;3805;49.006;8.514;2023-02-28T06:27:58;9.07;;;8.17;;
7527;SDS011;3805;49.006;8.514;2023-02-28T06:30:46;9.80;;;8.37;;
7527;SDS011;3805;49.006;8.514;2023-02-28T06:33:37;9.30;;;8.40;;
7527;SDS011;3805;49.006;8.514;2023-02-28T06:36:26;9.27;;;8.40;;
7527;SDS011;3805;49.006;8.514;2023-02-28T06:39:15;9.50;;;8.67;;
7527;SDS011;3805;49.006;8.514;2023-02-28T06:42:03;10.40;;;9.33;;
7527;SDS011;3805;49.006;8.514;2023-02-28T06:44:52;9.33;;;8.43;;
7527;SDS011;3805;49.006;8.514;2023-02-28T06:47:40;9.57;;;8.67;;
7527;SDS011;3805;49.006;8.514;2023-02-28T06:50:31;10.63;;;9.50;;
7527;SDS011;3805;49.006;8.514;2023-02-28T06:53:20;10.63;;;8.23;;
7527;SDS011;3805;49.006;8.514;2023-02-28T06:56:09;9.43;;;8.60;;
7527;SDS011;3805;49.006;8.514;2023-02-28T06:58:59;9.83;;;8.93;;
7527;SDS011;3805;49.006;8.514;2023-02-28T07:01:47;12.47;;;9.20;;
7527;SDS011;3805;49.006;8.514;2023-02-28T07:04:36;9.77;;;8.70;;
7527;SDS011;3805;49.006;8.514;2023-02-28T07:07:28;9.13;;;8.13;;
7527;SDS011;3805;49.006;8.514;2023-02-28T07:10:17;10.30;;;8.33;;
7527;SDS011;3805;49.006;8.514;2023-02-28T07:13:07;11.63;;;9.60;;
7527;SDS011;3805;49.006;8.514;2023-02-28T07:15:56;11.93;;;10.83;;
7527;SDS011;3805;49.006;8.514;2023-02-28T07:18:46;11.50;;;9.20;;
7527;SDS011;3805;49.006;8.514;2023-02-28T07:21:35;11.80;;;10.37;;
7527;SDS011;3805;49.006;8.514;2023-02-28T07:24:25;22.67;;;9.33;;
7527;SDS011;3805;49.006;8.514;2023-02-28T07:27:15;9.90;;;8.90;;
7527;SDS011;3805;49.006;8.514;2023-02-28T07:30:10;9.07;;;8.10;;
7527;SDS011;3805;49.006;8.514;2023-02-28T07:33:00;12.60;;;9.83;;
7527;SDS011;3805;49.006;8.514;2023-02-28T07:35:48;9.73;;;8.63;;
7527;SDS011;3805;49.006;8.514;2023-02-28T07:38:37;9.23;;;8.33;;
7527;SDS011;3805;49.006;8.514;2023-02-28T07:41:27;9.90;;;9.00;;
7527;SDS011;3805;49.006;8.514;2023-02-28T07:44:17;10.80;;;9.10;;
7527;SDS011;3805;49.006;8.514;2023-02-28T07:47:07;12.20;;;9.90;;
7527;SDS011;3805;49.006;8.514;2023-02-28T07:49:56;11.07;;;9.30;;
7527;SDS011;3805;49.006;8.514;2023-02-28T07:52:44;9.60;;;8.70;;
7527;SDS011;3805;49.006;8.514;2023-02-28T07:55:33;11.30;;;9.87;;
7527;SDS011;3805;49.006;8.514;2023-02-28T07:58:23;10.27;;;9.27;;
7527;SDS011;3805;49.006;8.514;2023-02-28T08:01:12;12.60;;;10.03;;
7527;SDS011;3805;49.006;8.514;2023-02-28T08:04:01;11.10;;;10.00;;
7527;SDS011;3805;49.006;8.514;2023-02-28T08:06:49;10.63;;;9.60;;
7527;SDS011;3805;49.006;8.514;2023-02-28T08:09:40;11.53;;;10.40;;
7527;SDS011;3805;49.006;8.514;2023-02-28T08:12:28;9.40;;;8.50;;
7527;SDS011;3805;49.006;8.514;2023-02-28T08:15:18;12.30;;;10.30;;
7527;SDS011;3805;49.006;8.514;2023-02-28T08:18:07;14.37;;;12.57;;
7527;SDS011;3805;49.006;8.514;2023-02-28T08:20:55;11.90;;;10.50;;
7527;SDS011;3805;49.006;8.514;2023-02-28T08:23:45;10.43;;;9.53;;
7527;SDS011;3805;49.006;8.514;2023-02-28T08:26:34;11.60;;;9.70;;
7527;SDS011;3805;49.006;8.514;2023-02-28T08:29:23;11.90;;;10.70;;
7527;SDS011;3805;49.006;8.514;2023-02-28T08:32:13;14.00;;;10.10;;
7527;SDS011;3805;49.006;8.514;2023-02-28T08:35:15;10.70;;;9.60;;
7527;SDS011;3805;49.006;8.514;2023-02-28T08:38:04;10.80;;;9.70;;
7527;SDS011;3805;49.006;8.514;2023-02-28T08:40:57;12.33;;;9.77;;
7527;SDS011;3805;49.006;8.514;2023-02-28T08:43:45;12.57;;;11.37;;
7527;SDS011;3805;49.006;8.514;2023-02-28T08:46:34;11.03;;;10.00;;
7527;SDS011;3805;49.006;8.514;2023-02-28T08:49:24;12.03;;;10.60;;
7527;SDS011;3805;49.006;8.514;2023-02-28T08:52:13;14.47;;;10.60;;
7527;SDS011;3805;49.006;8.514;2023-02-28T08:55:01;12.17;;;10.87;;
7527;SDS011;3805;49.006;8.514;2023-02-28T08:57:50;16.60;;;10.40;;
7527;SDS011;3805;49.006;8.514;2023-02-28T09:00:39;14.00;;;11.03;;
7527;SDS011;3805;49.006;8.514;2023-02-28T09:03:28;10.97;;;9.67;;
7527;SDS011;3805;49.006;8.514;2023-02-28T09:06:18;12.90;;;11.53;;
7527;SDS011;3805;49.006;8.514;2023-02-28T09:09:07;12.17;;;10.90;;
7527;SDS011;3805;49.006;8.514;2023-02-28T09:11:56;22.90;;;11.57;;
7527;SDS011;3805;49.006;8.514;2023-02-28T09:14:45;13.00;;;9.93;;
7527;SDS011;3805;49.006;8.514;2023-02-28T09:17:33;11.60;;;10.20;;
7527;SDS011;3805;49.006;8.514;2023-02-28T09:20:22;12.70;;;11.07;;
7527;SDS011;3805;49.006;8.514;2023-02-28T09:23:12;12.10;;;11.00;;
7527;SDS011;3805;49.006;8.514;2023-02-28T09:26:01;12.40;;;11.00;;
7527;SDS011;3805;49.006;8.514;2023-02-28T09:28:49;12.97;;;10.87;;
7527;SDS011;3805;49.006;8.514;2023-02-28T09:31:39;13.37;;;9.83;;
7527;SDS011;3805;49.006;8.514;2023-02-28T09:34:27;15.40;;;10.93;;
7527;SDS011;3805;49.006;8.514;2023-02-28T09:37:17;14.00;;;12.00;;
7527;SDS011;3805;49.006;8.514;2023-02-28T09:40:15;11.70;;;10.50;;
7527;SDS011;3805;49.006;8.514;2023-02-28T09:43:05;12.03;;;10.90;;
7527;SDS011;3805;49.006;8.514;2023-02-28T09:45:54;12.87;;;11.57;;
7527;SDS011;3805;49.006;8.514;2023-02-28T09:48:48;12.93;;;11.63;;
7527;SDS011;3805;49.006;8.514;2023-02-28T09:51:40;13.63;;;11.30;;
7527;SDS011;3805;49.006;8.514;2023-02-28T09:54:35;15.57;;;11.97;;
7527;SDS011;3805;49.006;8.514;2023-02-28T09:57:29;12.63;;;10.80;;
7527;SDS011;3805;49.006;8.514;2023-02-28T10:00:21;14.43;;;11.17;;
7527;SDS011;3805;49.006;8.514;2023-02-28T10:03:20;12.00;;;10.77;;
7527;SDS011;3805;49.006;8.514;2023-02-28T10:06:14;13.83;;;12.47;;
7527;SDS011;3805;49.006;8.514;2023-02-28T10:09:07;14.30;;;12.33;;
7527;SDS011;3805;49.006;8.514;2023-02-28T10:12:01;12.23;;;10.97;;
7527;SDS011;3805;49.006;8.514;2023-02-28T10:14:53;12.90;;;11.57;;
7527;SDS011;3805;49.006;8.514;2023-02-28T10:17:43;13.80;;;12.40;;
7527;SDS011;3805;49.006;8.514;2023-02-28T10:20:46;12.73;;;11.33;;
7527;SDS011;3805;49.006;8.514;2023-02-28T10:23:35;12.53;;;11.27;;
7527;SDS011;3805;49.006;8.514;2023-02-28T10:26:25;13.00;;;11.57;;
7527;SDS011;3805;49.006;8.514;2023-02-28T10:29:15;14.33;;;11.77;;
7527;SDS011;3805;49.006;8.514;2023-02-28T10:32:05;15.47;;;12.40;;
7527;SDS011;3805;49.006;8.514;2023-02-28T10:34:55;13.47;;;12.07;;
7527;SDS011;3805;49.006;8.514;2023-02-28T10:37:46;13.90;;;12.23;;
7527;SDS011;3805;49.006;8.514;2023-02-28T10:40:36;12.53;;;11.00;;
7527;SDS011;3805;49.006;8.514;2023-02-28T10:43:24;13.60;;;12.20;;
7527;SDS011;3805;49.006;8.514;2023-02-28T10:46:14;12.97;;;11.67;;
7527;SDS011;3805;49.006;8.514;2023-02-28T10:49:14;14.63;;;11.67;;
7527;SDS011;3805;49.006;8.514;2023-02-28T10:52:07;15.17;;;12.70;;
7527;SDS011;3805;49.006;8.514;2023-02-28T10:54:57;13.30;;;11.90;;
7527;SDS011;3805;49.006;8.514;2023-02-28T10:58:02;13.30;;;11.90;;
7527;SDS011;3805;49.006;8.514;2023-02-28T11:00:51;18.90;;;11.83;;
7527;SDS011;3805;49.006;8.514;2023-02-28T11:03:46;12.73;;;11.50;;
7527;SDS011;3805;49.006;8.514;2023-02-28T11:06:36;12.90;;;11.50;;
7527;SDS011;3805;49.006;8.514;2023-02-28T11:09:30;13.13;;;11.83;;
7527;SDS011;3805;49.006;8.514;2023-02-28T11:12:21;13.37;;;11.97;;
7527;SDS011;3805;49.006;8.514;2023-02-28T11:15:19;14.40;;;13.03;;
7527;SDS011;3805;49.006;8.514;2023-02-28T11:18:18;14.23;;;12.60;;
7527;SDS011;3805;49.006;8.514;2023-02-28T11:21:10;13.23;;;11.93;;
7527;SDS011;3805;49.006;8.514;2023-02-28T11:24:07;14.83;;;12.40;;
7527;SDS011;3805;49.006;8.514;2023-02-28T11:27:04;15.00;;;12.63;;
7527;SDS011;3805;49.006;8.514;2023-02-28T11:29:52;14.03;;;12.50;;
7527;SDS011;3805;49.006;8.514;2023-02-28T11:32:42;15.20;;;12.73;;
7527;SDS011;3805;49.006;8.514;2023-02-28T11:35:37;14.60;;;13.00;;
7527;SDS011;3805;49.006;8.514;2023-02-28T11:38:26;14.50;;;12.57;;
7527;SDS011;3805;49.006;8.514;2023-02-28T11:41:27;14.10;;;12.60;;
7527;SDS011;3805;49.006;8.514;2023-02-28T11:44:29;14.30;;;12.90;;
7527;SDS011;3805;49.006;8.514;2023-02-28T11:47:26;15.37;;;13.60;;
7527;SDS011;3805;49.006;8.514;2023-02-28T11:50:22;14.27;;;12.77;;
7527;SDS011;3805;49.006;8.514;2023-02-28T11:53:22;13.73;;;12.37;;
7527;SDS011;3805;49.006;8.514;2023-02-28T11:56:21;12.70;;;11.50;;
7527;SDS011;3805;49.006;8.514;2023-02-28T11:59:26;18.03;;;13.77;;
7527;SDS011;3805;49.006;8.514;2023-02-28T12:02:24;14.37;;;12.87;;
7527;SDS011;3805;49.006;8.514;2023-02-28T12:05:18;14.40;;;12.90;;
7527;SDS011;3805;49.006;8.514;2023-02-28T12:08:20;12.83;;;11.70;;
7527;SDS011;3805;49.006;8.514;2023-02-28T12:11:16;15.17;;;12.87;;
7527;SDS011;3805;49.006;8.514;2023-02-28T12:14:25;15.47;;;13.87;;
7527;SDS011;3805;49.006;8.514;2023-02-28T12:17:37;14.70;;;13.13;;
7527;SDS011;3805;49.006;8.514;2023-02-28T12:20:33;16.70;;;13.37;;
7527;SDS011;3805;49.006;8.514;2023-02-28T12:23:27;14.20;;;12.80;;
7527;SDS011;3805;49.006;8.514;2023-02-28T12:26:37;13.30;;;11.63;;
7527;SDS011;3805;49.006;8.514;2023-02-28T12:29:29;13.70;;;12.30;;
7527;SDS011;3805;49.006;8.514;2023-02-28T12:32:21;16.40;;;12.87;;
7527;SDS011;3805;49.006;8.514;2023-02-28T12:35:12;13.63;;;12.23;;
7527;SDS011;3805;49.006;8.514;2023-02-28T12:38:04;13.70;;;11.73;;
7527;SDS011;3805;49.006;8.514;2023-02-28T12:40:58;16.67;;;12.93;;
7527;SDS011;3805;49.006;8.514;2023-02-28T12:43:51;17.00;;;12.17;;
7527;SDS011;3805;49.006;8.514;2023-02-28T12:46:45;13.57;;;12.13;;
7527;SDS011;3805;49.006;8.514;2023-02-28T12:49:38;14.80;;;13.03;;
7527;SDS011;3805;49.006;8.514;2023-02-28T12:52:31;13.87;;;12.37;;
7527;SDS011;3805;49.006;8.514;2023-02-28T12:55:27;13.30;;;11.90;;
7527;SDS011;3805;49.006;8.514;2023-02-28T12:58:20;17.70;;;13.17;;
7527;SDS011;3805;49.006;8.514;2023-02-28T13:01:34;13.10;;;11.87;;
7527;SDS011;3805;49.006;8.514;2023-02-28T13:07:42;14.77;;;13.10;;
7527;SDS011;3805;49.006;8.514;2023-02-28T13:10:55;14.90;;;13.03;;
7527;SDS011;3805;49.006;8.514;2023-02-28T13:13:43;13.83;;;12.43;;
7527;SDS011;3805;49.006;8.514;2023-02-28T13:19:39;16.13;;;13.37;;
7527;SDS011;3805;49.006;8.514;2023-02-28T13:22:40;15.60;;;12.40;;
7527;SDS011;3805;49.006;8.514;2023-02-28T13:38:33;14.80;;;13.23;;
7527;SDS011;3805;49.006;8.514;2023-02-28T13:41:46;16.13;;;14.57;;
7527;SDS011;3805;49.006;8.514;2023-02-28T13:44:45;15.50;;;14.00;;
7527;SDS011;3805;49.006;8.514;2023-02-28T13:48:17;14.60;;;12.97;;
7527;SDS011;3805;49.006;8.514;2023-02-28T13:54:32;15.50;;;13.90;;
7527;SDS011;3805;49.006;8.514;2023-02-28T13:57:31;15.10;;;13.50;;
7527;SDS011;3805;49.006;8.514;2023-02-28T14:00:31;15.00;;;13.57;;
7527;SDS011;3805;49.006;8.514;2023-02-28T14:03:28;15.97;;;14.03;;
7527;SDS011;3805;49.006;8.514;2023-02-28T14:06:27;15.37;;;13.87;;
7527;SDS011;3805;49.006;8.514;2023-02-28T14:09:18;16.00;;;13.63;;
7527;SDS011;3805;49.006;8.514;2023-02-28T14:18:48;16.90;;;14.77;;
7527;SDS011;3805;49.006;8.514;2023-02-28T14:21:39;18.37;;;14.80;;
7527;SDS011;3805;49.006;8.514;2023-02-28T14:24:48;15.97;;;13.97;;
7527;SDS011;3805;49.006;8.514;2023-02-28T14:27:54;15.80;;;14.17;;
7527;SDS011;3805;49.006;8.514;2023-02-28T14:30:52;16.90;;;15.10;;
7527;SDS011;3805;49.006;8.514;2023-02-28T14:33:53;20.50;;;16.10;;
7527;SDS011;3805;49.006;8.514;2023-02-28T14:36:48;19.97;;;15.27;;
7527;SDS011;3805;49.006;8.514;2023-02-28T14:39:40;15.97;;;14.27;;
7527;SDS011;3805;49.006;8.514;2023-02-28T14:42:29;17.83;;;13.73;;
7527;SDS011;3805;49.006;8.514;2023-02-28T14:45:20;18.00;;;14.73;;
7527;SDS011;3805;49.006;8.514;2023-02-28T14:48:10;17.00;;;15.00;;
7527;SDS011;3805;49.006;8.514;2023-02-28T14:50:59;16.97;;;15.10;;
7527;SDS011;3805;49.006;8.514;2023-02-28T14:53:49;16.17;;;14.47;;
7527;SDS011;3805;49.006;8.514;2023-02-28T14:56:42;16.53;;;14.90;;
7527;SDS011;3805;49.006;8.514;2023-02-28T14:59:32;19.77;;;14.43;;
7527;SDS011;3805;49.006;8.514;2023-02-28T15:02:22;15.50;;;13.60;;
7527;SDS011;3805;49.006;8.514;2023-02-28T15:08:23;18.23;;;14.53;;
7527;SDS011;3805;49.006;8.514;2023-02-28T15:11:17;15.63;;;13.93;;
7527;SDS011;3805;49.006;8.514;2023-02-28T15:14:13;15.57;;;14.07;;
7527;SDS011;3805;49.006;8.514;2023-02-28T15:17:05;19.40;;;14.60;;
7527;SDS011;3805;49.006;8.514;2023-02-28T15:19:56;18.37;;;16.47;;
7527;SDS011;3805;49.006;8.514;2023-02-28T15:22:46;16.20;;;14.50;;
7527;SDS011;3805;49.006;8.514;2023-02-28T15:25:35;17.50;;;14.47;;
7527;SDS011;3805;49.006;8.514;2023-02-28T15:28:24;15.97;;;14.33;;
7527;SDS011;3805;49.006;8.514;2023-02-28T15:31:20;15.27;;;13.77;;
7527;SDS011;3805;49.006;8.514;2023-02-28T15:34:17;15.53;;;13.97;;
7527;SDS011;3805;49.006;8.514;2023-02-28T15:37:28;16.83;;;15.10;;
7527;SDS011;3805;49.006;8.514;2023-02-28T15:40:30;18.33;;;14.23;;
7527;SDS011;3805;49.006;8.514;2023-02-28T15:43:24;16.50;;;14.50;;
7527;SDS011;3805;49.006;8.514;2023-02-28T15:46:14;15.73;;;14.17;;
7527;SDS011;3805;49.006;8.514;2023-02-28T15:49:04;15.50;;;14.00;;
7527;SDS011;3805;49.006;8.514;2023-02-28T15:51:53;16.63;;;14.83;;
7527;SDS011;3805;49.006;8.514;2023-02-28T15:54:43;18.13;;;14.83;;
7527;SDS011;3805;49.006;8.514;2023-02-28T15:57:34;16.10;;;13.97;;
7527;SDS011;3805;49.006;8.514;2023-02-28T16:00:23;15.67;;;13.97;;
7527;SDS011;3805;49.006;8.514;2023-02-28T16:03:22;19.40;;;16.90;;
7527;SDS011;3805;49.006;8.514;2023-02-28T16:09:26;16.17;;;14.43;;
7527;SDS011;3805;49.006;8.514;2023-02-28T16:12:16;17.73;;;15.23;;
7527;SDS011;3805;49.006;8.514;2023-02-28T16:15:07;20.53;;;15.43;;
7527;SDS011;3805;49.006;8.514;2023-02-28T16:18:02;17.67;;;14.87;;
7527;SDS011;3805;49.006;8.514;2023-02-28T16:20:53;15.57;;;13.97;;
7527;SDS011;3805;49.006;8.514;2023-02-28T16:23:42;16.37;;;13.60;;
7527;SDS011;3805;49.006;8.514;2023-02-28T16:26:34;17.43;;;14.40;;
7527;SDS011;3805;49.006;8.514;2023-02-28T16:29:24;15.70;;;13.23;;
7527;SDS011;3805;49.006;8.514;2023-02-28T16:32:17;15.80;;;13.70;;
7527;SDS011;3805;49.006;8.514;2023-02-28T16:35:08;17.73;;;15.43;;
7527;SDS011;3805;49.006;8.514;2023-02-28T16:37:57;16.70;;;15.00;;
7527;SDS011;3805;49.006;8.514;2023-02-28T16:40:46;16.63;;;14.57;;
7527;SDS011;3805;49.006;8.514;2023-02-28T16:43:34;16.17;;;14.43;;
7527;SDS011;3805;49.006;8.514;2023-02-28T16:46:23;16.90;;;14.37;;
7527;SDS011;3805;49.006;8.514;2023-02-28T16:49:13;16.77;;;15.07;;
7527;SDS011;3805;49.006;8.514;2023-02-28T16:52:02;18.27;;;14.60;;
7527;SDS011;3805;49.006;8.514;2023-02-28T16:54:51;17.33;;;14.77;;
7527;SDS011;3805;49.006;8.514;2023-02-28T16:57:41;16.73;;;14.30;;
7527;SDS011;3805;49.006;8.514;2023-02-28T17:00:31;16.60;;;14.80;;
7527;SDS011;3805;49.006;8.514;2023-02-28T17:03:25;15.37;;;13.77;;
7527;SDS011;3805;49.006;8.514;2023-02-28T17:06:23;19.43;;;14.60;;
7527;SDS011;3805;49.006;8.514;2023-02-28T17:09:17;13.97;;;12.50;;
7527;SDS011;3805;49.006;8.514;2023-02-28T17:12:10;17.00;;;13.73;;
7527;SDS011;3805;49.006;8.514;2023-02-28T17:14:59;15.47;;;13.97;;
7527;SDS011;3805;49.006;8.514;2023-02-28T17:17:47;16.90;;;12.60;;
7527;SDS011;3805;49.006;8.514;2023-02-28T17:20:36;14.83;;;13.33;;
7527;SDS011;3805;49.006;8.514;2023-02-28T17:23:26;15.40;;;13.80;;
7527;SDS011;3805;49.006;8.514;2023-02-28T17:26:16;17.63;;;13.83;;
7527;SDS011;3805;49.006;8.514;2023-02-28T17:29:11;17.87;;;13.87;;
7527;SDS011;3805;49.006;8.514;2023-02-28T17:32:02;15.70;;;13.63;;
7527;SDS011;3805;49.006;8.514;2023-02-28T17:35:03;15.50;;;13.57;;
7527;SDS011;3805;49.006;8.514;2023-02-28T17:37:52;15.60;;;13.23;;
7527;SDS011;3805;49.006;8.514;2023-02-28T17:40:42;16.57;;;13.90;;
7527;SDS011;3805;49.006;8.514;2023-02-28T17:43:31;15.73;;;13.10;;
7527;SDS011;3805;49.006;8.514;2023-02-28T17:46:20;17.10;;;13.70;;
7527;SDS011;3805;49.006;8.514;2023-02-28T17:49:10;17.87;;;14.40;;
7527;SDS011;3805;49.006;8.514;2023-02-28T17:51:58;15.13;;;13.50;;
7527;SDS011;3805;49.006;8.514;2023-02-28T17:54:47;21.10;;;14.90;;
7527;SDS011;3805;49.006;8.514;2023-02-28T17:57:37;16.97;;;13.70;;
7527;SDS011;3805;49.006;8.514;2023-02-28T18:00:26;18.60;;;14.30;;
7527;SDS011;3805;49.006;8.514;2023-02-28T18:03:14;21.67;;;15.73;;
7527;SDS011;3805;49.006;8.514;2023-02-28T18:06:03;17.50;;;14.27;;
7527;SDS011;3805;49.006;8.514;2023-02-28T18:08:53;15.37;;;13.77;;